Current Weather

Enontekio

Enontekio, Finland (EFET)

Report from: Thursday, April 25, 2024 4:20 AM UTC
Current time: Thursday, April 25, 2024 4:45 AM UTC

Nearby weather – Weather history – Daily summaries
Weather forecast

Temperature-2.0°C (28.4°F)
Wind chill-6.4°C (20.4°F)
Dew point-3.0°C (26.6°F)
Winds 7 kts (3.6 m/s, 8.1 mph) South (180°)
Visibility6.2 mi. (10 km)
Clouds Ceiling: Overcast 600 ft. (183 m)
Altimeter29.85 in.Hg (1011 mB)
Relative humidity93 %
Density altitude-1,934 ft. (-590 m)
Remarks Fully automated report
Flight conditions Instrument Meteorological Conditions
Raw dataEFET 250420Z AUTO 18007KT 9999 OVC006 M02/M03 Q1011
An error has occurred. This application may no longer respond until reloaded. Reload 🗙